American Pillar — WDB9867 — position and weather

sailwx.info

Track history (hours):
 
Tides and Currents Weather Stations Pressure Air Temp Water Temp Dewpoint Dewpoint Depression Visibility Wind Speed Wind Dir Waves Ship Positions

American Pillar

Owner: American River Transportation Company, St Louis, MO. More information available from US FCC via Universal Licensing System and Coast Guard Vessel Documentation Center.

Last reported at 2018-Jun-15 09:25 UTC. Time now 2018-Jun-19 12:22 UTC.
Position N 32°57' W 091°05'.

Length 55 m; draft 3.5 m.

Type: Towing. MMSI: 366984210.

Date/timePositionNaut miles runAvg speedWind from/ knotsBaromVisibWave heightAir tempDewpointWater temp
2018-Jun-15 09:25N 32°57' W 091°05'9 4.5
2018-Jun-15 07:23N 32°49' W 091°09'2 4.8
2018-Jun-15 07:00N 32°47' W 091°09'4 2.5
2018-Jun-15 05:27N 32°44' W 091°06'2 4.0
2018-Jun-15 05:00N 32°44' W 091°04'4 4.1
2018-Jun-15 03:58N 32°40' W 091°07'2 3.9
2018-Jun-15 03:30N 32°39' W 091°09'1 2.3
2018-Jun-15 03:00N 32°38' W 091°09'0 0.0
2018-Jun-15 02:30N 32°38' W 091°09'2 4.8
2018-Jun-15 02:00N 32°36' W 091°08'3 5.2
2018-Jun-15 01:30N 32°34' W 091°06'3 4.8
2018-Jun-15 00:58N 32°32' W 091°06'2 5.4
2018-Jun-15 00:30N 32°29' W 091°07'3 5.0
2018-Jun-15 00:00N 32°27' W 091°05'3 5.1
2018-Jun-14 23:31N 32°26' W 091°02'2 4.9
2018-Jun-14 23:00N 32°25' W 090°60'2 4.4
2018-Jun-14 22:30N 32°23' W 091°00'2 3.8
2018-Jun-14 22:01N 32°21' W 090°59'2 4.9
2018-Jun-14 21:30N 32°21' W 090°56'2 4.4
2018-Jun-14 21:00N 32°19' W 090°54'2 4.4
2018-Jun-14 20:31N 32°18' W 090°56'2 3.8
2018-Jun-14 20:00N 32°16' W 090°58'2 4.8
2018-Jun-14 19:30N 32°14' W 090°59'3 5.2
2018-Jun-14 19:01N 32°12' W 090°60'2 4.6
2018-Jun-14 18:30N 32°09' W 091°00'2 4.4
2018-Jun-14 18:00N 32°07' W 091°02'3 4.8
2018-Jun-14 17:24N 32°08' W 091°05'2 4.3
2018-Jun-14 17:01N 32°07' W 091°06'4 2.6
2018-Jun-14 15:20N 32°03' W 091°04'2 5.4
2018-Jun-14 15:00N 32°02' W 091°04'2 4.0
2018-Jun-14 14:30N 32°00' W 091°05'2 4.9
2018-Jun-14 14:00N 31°59' W 091°08'2 5.0
2018-Jun-14 13:30N 31°58' W 091°11'5 5.4
2018-Jun-14 12:34N 31°54' W 091°13'0 4.9
2018-Jun-14 12:30N 31°53' W 091°13'7 4.8
2018-Jun-14 11:08N 31°51' W 091°20'1 5.1
2018-Jun-14 10:59N 31°50' W 091°21'5 3.1
2018-Jun-14 09:26N 31°46' W 091°22'4 5.2
2018-Jun-14 08:40N 31°42' W 091°24'  
2018-Jun-06 05:35N 31°42' W 091°24'1 8.5
2018-Jun-06 05:28N 31°43' W 091°23'5 8.9
2018-Jun-06 04:58N 31°47' W 091°21'8 7.4
2018-Jun-06 03:49N 31°53' W 091°14'4 8.3
2018-Jun-06 03:20N 31°56' W 091°12'6 7.7
2018-Jun-06 02:37N 31°59' W 091°06'1 8.9
2018-Jun-06 02:29N 32°00' W 091°05'5 7.5
2018-Jun-06 01:47N 32°05' W 091°05'2 8.5
2018-Jun-06 01:30N 32°07' W 091°06'4 7.6
2018-Jun-06 01:00N 32°07' W 091°02'4 8.2
2018-Jun-06 00:31N 32°11' W 090°60'5 9.2
2018-Jun-06 00:01N 32°15' W 090°58'4 8.7
2018-Jun-05 23:30N 32°18' W 090°55'2 4.2
2018-Jun-05 23:00N 32°20' W 090°54'4 7.4
2018-Jun-05 22:30N 32°21' W 090°59'3 6.8
2018-Jun-05 22:00N 32°24' W 090°59'4 7.8
2018-Jun-05 21:30N 32°26' W 091°03'4 8.7
2018-Jun-05 21:00N 32°29' W 091°07'4 8.8
2018-Jun-05 20:30N 32°34' W 091°06'4 8.8
2018-Jun-05 20:00N 32°37' W 091°09'  
Track history (hours):
 
Tides and Currents Weather Stations Pressure Air Temp Water Temp Dewpoint Dewpoint Depression Visibility Wind Speed Wind Dir Waves Ship Positions

American Pillar

Owner: American River Transportation Company, St Louis, MO. More information available from US FCC via Universal Licensing System and Coast Guard Vessel Documentation Center.

Last reported at 2018-Jun-15 09:25 UTC. Time now 2018-Jun-19 12:22 UTC.
Position N 32°57' W 091°05'.

Length 55 m; draft 3.5 m.

Type: Towing. MMSI: 366984210.

Date/timePositionNaut miles runAvg speedWind from/ knotsBaromVisibWave heightAir tempDewpointWater temp
2018-Jun-15 09:25N 32°57' W 091°05'9 4.5
2018-Jun-15 07:23N 32°49' W 091°09'2 4.8
2018-Jun-15 07:00N 32°47' W 091°09'4 2.5
2018-Jun-15 05:27N 32°44' W 091°06'2 4.0
2018-Jun-15 05:00N 32°44' W 091°04'4 4.1
2018-Jun-15 03:58N 32°40' W 091°07'2 3.9
2018-Jun-15 03:30N 32°39' W 091°09'1 2.3
2018-Jun-15 03:00N 32°38' W 091°09'0 0.0
2018-Jun-15 02:30N 32°38' W 091°09'2 4.8
2018-Jun-15 02:00N 32°36' W 091°08'3 5.2
2018-Jun-15 01:30N 32°34' W 091°06'3 4.8
2018-Jun-15 00:58N 32°32' W 091°06'2 5.4
2018-Jun-15 00:30N 32°29' W 091°07'3 5.0
2018-Jun-15 00:00N 32°27' W 091°05'3 5.1
2018-Jun-14 23:31N 32°26' W 091°02'2 4.9
2018-Jun-14 23:00N 32°25' W 090°60'2 4.4
2018-Jun-14 22:30N 32°23' W 091°00'2 3.8
2018-Jun-14 22:01N 32°21' W 090°59'2 4.9
2018-Jun-14 21:30N 32°21' W 090°56'2 4.4
2018-Jun-14 21:00N 32°19' W 090°54'2 4.4
2018-Jun-14 20:31N 32°18' W 090°56'2 3.8
2018-Jun-14 20:00N 32°16' W 090°58'2 4.8
2018-Jun-14 19:30N 32°14' W 090°59'3 5.2
2018-Jun-14 19:01N 32°12' W 090°60'2 4.6
2018-Jun-14 18:30N 32°09' W 091°00'2 4.4
2018-Jun-14 18:00N 32°07' W 091°02'3 4.8
2018-Jun-14 17:24N 32°08' W 091°05'2 4.3
2018-Jun-14 17:01N 32°07' W 091°06'4 2.6
2018-Jun-14 15:20N 32°03' W 091°04'2 5.4
2018-Jun-14 15:00N 32°02' W 091°04'2 4.0
2018-Jun-14 14:30N 32°00' W 091°05'2 4.9
2018-Jun-14 14:00N 31°59' W 091°08'2 5.0
2018-Jun-14 13:30N 31°58' W 091°11'5 5.4
2018-Jun-14 12:34N 31°54' W 091°13'0 4.9
2018-Jun-14 12:30N 31°53' W 091°13'7 4.8
2018-Jun-14 11:08N 31°51' W 091°20'1 5.1
2018-Jun-14 10:59N 31°50' W 091°21'5 3.1
2018-Jun-14 09:26N 31°46' W 091°22'4 5.2
2018-Jun-14 08:40N 31°42' W 091°24'  
2018-Jun-06 05:35N 31°42' W 091°24'1 8.5
2018-Jun-06 05:28N 31°43' W 091°23'5 8.9
2018-Jun-06 04:58N 31°47' W 091°21'8 7.4
2018-Jun-06 03:49N 31°53' W 091°14'4 8.3
2018-Jun-06 03:20N 31°56' W 091°12'6 7.7
2018-Jun-06 02:37N 31°59' W 091°06'1 8.9
2018-Jun-06 02:29N 32°00' W 091°05'5 7.5
2018-Jun-06 01:47N 32°05' W 091°05'2 8.5
2018-Jun-06 01:30N 32°07' W 091°06'4 7.6
2018-Jun-06 01:00N 32°07' W 091°02'4 8.2
2018-Jun-06 00:31N 32°11' W 090°60'5 9.2
2018-Jun-06 00:01N 32°15' W 090°58'4 8.7
2018-Jun-05 23:30N 32°18' W 090°55'2 4.2
2018-Jun-05 23:00N 32°20' W 090°54'4 7.4
2018-Jun-05 22:30N 32°21' W 090°59'3 6.8
2018-Jun-05 22:00N 32°24' W 090°59'4 7.8
2018-Jun-05 21:30N 32°26' W 091°03'4 8.7
2018-Jun-05 21:00N 32°29' W 091°07'4 8.8
2018-Jun-05 20:30N 32°34' W 091°06'4 8.8
2018-Jun-05 20:00N 32°37' W 091°09'  

Dump ship's entire track history